createdAt,value
2022-12-22T00:00:02.006Z,10.48
2022-12-22T00:05:02.048Z,10.21
2022-12-22T00:10:01.409Z,10.21
2022-12-22T00:20:02.354Z,10.35
2022-12-22T00:25:01.876Z,10.35
2022-12-22T00:30:01.998Z,10.33
2022-12-22T00:35:02.083Z,10.33
2022-12-22T00:40:01.597Z,10.31
2022-12-22T00:45:01.595Z,10.39
2022-12-22T00:50:01.999Z,10.4
2022-12-22T00:55:01.831Z,10.43
2022-12-22T01:00:02.214Z,10.5
2022-12-22T01:05:02.027Z,10.53
2022-12-22T01:10:01.745Z,10.52
2022-12-22T01:15:01.637Z,10.53
2022-12-22T01:20:01.725Z,10.5
2022-12-22T01:25:02.128Z,10.51
2022-12-22T01:30:02.059Z,10.44
2022-12-22T01:35:01.387Z,10.55
2022-12-22T01:40:02.029Z,10.43
2022-12-22T01:45:02.178Z,10.57
2022-12-22T01:50:01.315Z,10.46
2022-12-22T01:55:01.305Z,10.62
2022-12-22T02:00:01.611Z,10.42
2022-12-22T02:05:02.216Z,10.65
2022-12-22T02:10:01.346Z,10.5
2022-12-22T02:15:01.920Z,10.48
2022-12-22T02:20:02.259Z,10.5
2022-12-22T02:25:01.688Z,10.48
2022-12-22T02:30:01.642Z,10.42
2022-12-22T02:35:01.901Z,10.41
2022-12-22T02:40:02.176Z,10.43
2022-12-22T02:45:02.113Z,10.44
2022-12-22T02:50:02.181Z,10.45
2022-12-22T02:55:02.163Z,10.4
2022-12-22T03:00:02.144Z,10.4
2022-12-22T03:05:01.929Z,10.41
2022-12-22T03:10:02.114Z,10.34
2022-12-22T03:15:02.077Z,10.36
2022-12-22T03:20:01.902Z,10.28
2022-12-22T03:25:02.051Z,10.2
2022-12-22T03:30:02.078Z,10.08
2022-12-22T03:35:01.486Z,9.98
2022-12-22T03:40:02.168Z,9.92
2022-12-22T03:45:02.147Z,9.89
2022-12-22T03:50:01.765Z,9.85
2022-12-22T03:55:02.233Z,9.81
2022-12-22T04:00:02.277Z,9.77
2022-12-22T04:05:02.254Z,9.75
2022-12-22T04:10:01.575Z,9.77
2022-12-22T04:15:01.962Z,9.85
2022-12-22T04:20:02.215Z,9.95
2022-12-22T04:25:01.747Z,10.05
2022-12-22T04:30:01.432Z,10.13
2022-12-22T04:35:01.478Z,10.2
2022-12-22T04:40:01.711Z,10.21
2022-12-22T04:45:01.463Z,10.37
2022-12-22T04:50:01.656Z,10.53
2022-12-22T04:55:01.661Z,10.57
2022-12-22T05:00:02.239Z,10.64
2022-12-22T05:05:01.928Z,10.73
2022-12-22T05:10:01.980Z,10.78
2022-12-22T05:15:01.942Z,10.78
2022-12-22T05:20:01.840Z,10.78
2022-12-22T05:25:01.989Z,10.74
2022-12-22T05:30:02.160Z,10.78
2022-12-22T05:35:01.908Z,10.69
2022-12-22T05:40:01.682Z,10.66
2022-12-22T05:45:02.084Z,10.59
2022-12-22T05:50:02.221Z,10.55
2022-12-22T05:55:02.945Z,10.5
2022-12-22T06:00:01.682Z,10.5
2022-12-22T06:05:01.860Z,10.49
2022-12-22T06:10:07.779Z,10.52
2022-12-22T06:15:02.063Z,10.4
2022-12-22T06:20:01.863Z,10.46
2022-12-22T06:25:01.916Z,10.4
2022-12-22T06:30:02.106Z,10.39
2022-12-22T06:35:02.105Z,10.28
2022-12-22T06:40:02.082Z,10.07
2022-12-22T06:45:02.001Z,9.92
2022-12-22T06:50:01.541Z,9.84
2022-12-22T06:55:02.226Z,9.82
2022-12-22T07:00:01.986Z,9.93
2022-12-22T07:05:01.693Z,9.93
2022-12-22T07:10:01.977Z,9.96
2022-12-22T07:15:01.564Z,9.96
2022-12-22T07:20:02.064Z,9.97
2022-12-22T07:25:01.455Z,9.98
2022-12-22T07:30:01.882Z,10
2022-12-22T07:35:05.684Z,10.06
2022-12-22T07:40:02.235Z,10.07
2022-12-22T07:45:01.764Z,10.08
2022-12-22T07:50:01.733Z,10.08
2022-12-22T08:00:01.582Z,9.99
2022-12-22T08:05:02.313Z,10.04
2022-12-22T08:10:01.347Z,9.96
2022-12-22T08:15:01.591Z,9.95
2022-12-22T08:20:01.554Z,9.94
2022-12-22T08:25:01.934Z,9.94
2022-12-22T08:30:01.499Z,9.91
2022-12-22T08:35:02.128Z,9.92
2022-12-22T08:40:01.780Z,9.95
2022-12-22T08:45:02.234Z,9.95
2022-12-22T08:50:01.906Z,9.98
2022-12-22T08:55:01.697Z,10.01
2022-12-22T09:00:01.439Z,10.05
2022-12-22T09:05:01.922Z,10.01
2022-12-22T09:10:02.167Z,10.01
2022-12-22T09:15:02.114Z,10
2022-12-22T09:20:01.881Z,9.94
2022-12-22T09:25:01.534Z,9.92
2022-12-22T09:30:01.945Z,9.82
2022-12-22T09:35:01.758Z,9.77
2022-12-22T09:40:01.491Z,9.7
2022-12-22T09:45:01.472Z,9.66
2022-12-22T09:50:01.513Z,9.66
2022-12-22T09:55:02.110Z,9.62
2022-12-22T10:00:01.403Z,9.59
2022-12-22T10:05:01.857Z,9.63
2022-12-22T10:10:01.786Z,9.67
2022-12-22T10:15:01.944Z,9.68
2022-12-22T10:20:02.129Z,9.75
2022-12-22T10:25:01.879Z,9.81
2022-12-22T10:30:02.235Z,9.9
2022-12-22T10:35:01.556Z,9.93
2022-12-22T10:40:02.237Z,10
2022-12-22T10:45:02.188Z,9.86
2022-12-22T10:50:01.724Z,9.75
2022-12-22T10:55:02.144Z,9.69
2022-12-22T11:00:01.922Z,9.66
2022-12-22T11:05:01.723Z,9.76
2022-12-22T11:10:01.520Z,9.81
2022-12-22T11:15:01.493Z,9.81
2022-12-22T11:20:02.161Z,9.79
2022-12-22T11:25:01.621Z,9.78
2022-12-22T11:30:01.484Z,9.75
2022-12-22T11:35:02.272Z,9.86
2022-12-22T11:40:01.555Z,9.88
2022-12-22T11:45:02.073Z,9.98
2022-12-22T11:50:58.270Z,9.97
2022-12-22T11:55:01.889Z,9.82
2022-12-22T12:00:01.993Z,9.7
2022-12-22T12:05:01.520Z,9.6
2022-12-22T12:10:02.091Z,9.62
2022-12-22T12:15:01.989Z,9.57
2022-12-22T12:20:01.962Z,9.65
2022-12-22T12:25:01.930Z,9.71
2022-12-22T12:30:36.403Z,9.75
2022-12-22T12:35:02.183Z,9.78
2022-12-22T12:40:02.215Z,9.76
2022-12-22T12:45:01.566Z,9.7
2022-12-22T12:50:02.062Z,9.66
2022-12-22T12:55:01.355Z,9.65
2022-12-22T13:00:02.135Z,9.44
2022-12-22T13:05:01.872Z,9.47
2022-12-22T13:10:01.457Z,9.34
2022-12-22T13:15:01.536Z,9.38
2022-12-22T13:20:01.620Z,9.41
2022-12-22T13:25:01.939Z,9.26
2022-12-22T13:30:01.521Z,9.14
2022-12-22T13:35:30.399Z,9.25
2022-12-22T13:40:01.729Z,9.19
2022-12-22T13:45:01.410Z,9.2
2022-12-22T13:50:09.397Z,9.26
2022-12-22T13:55:01.867Z,9.31
2022-12-22T14:00:01.991Z,9.19
2022-12-22T14:05:03.261Z,9.14
2022-12-22T14:10:02.012Z,9.12
2022-12-22T14:15:01.461Z,9.1
2022-12-22T14:20:02.247Z,9.11
2022-12-22T14:25:02.157Z,9.14
2022-12-22T14:30:01.532Z,9.19
2022-12-22T14:35:01.380Z,9.15
2022-12-22T14:40:02.110Z,9.05
2022-12-22T14:45:02.096Z,9.06
2022-12-22T14:50:01.365Z,9
2022-12-22T14:55:01.873Z,8.82
2022-12-22T15:00:02.263Z,8.88
2022-12-22T15:05:01.624Z,8.87
2022-12-22T15:10:16.938Z,8.82
2022-12-22T15:15:01.847Z,8.81
2022-12-22T15:20:02.323Z,8.83
2022-12-22T15:25:01.414Z,8.83
2022-12-22T15:30:02.198Z,8.88
2022-12-22T15:35:01.667Z,8.8
2022-12-22T15:40:01.422Z,8.85
2022-12-22T15:45:01.570Z,8.92
2022-12-22T15:50:02.161Z,8.95
2022-12-22T15:55:02.277Z,9.01
2022-12-22T16:00:01.495Z,9.07
2022-12-22T16:05:01.527Z,9.08
2022-12-22T16:10:01.578Z,9.1
2022-12-22T16:15:01.654Z,9.08
2022-12-22T16:20:01.385Z,9.06
2022-12-22T16:25:01.895Z,8.98
2022-12-22T16:30:02.046Z,9
2022-12-22T16:35:01.416Z,8.98
2022-12-22T16:40:01.798Z,8.94
2022-12-22T16:45:02.108Z,8.89
2022-12-22T16:50:02.275Z,8.89
2022-12-22T16:55:01.727Z,8.87
2022-12-22T17:00:01.881Z,8.87
2022-12-22T17:05:02.023Z,8.93
2022-12-22T17:10:01.504Z,9.11
2022-12-22T17:15:02.226Z,9.18
2022-12-22T17:20:02.269Z,9.23
2022-12-22T17:25:01.673Z,9.25
2022-12-22T17:30:02.143Z,9.27
2022-12-22T17:35:02.069Z,9.3
2022-12-22T17:40:01.750Z,9.36
2022-12-22T17:45:02.167Z,9.34
2022-12-22T17:50:01.897Z,9.24
2022-12-22T17:55:01.987Z,9.26
2022-12-22T18:00:02.193Z,9.32
2022-12-22T18:05:01.434Z,9.35
2022-12-22T18:10:01.480Z,9.4
2022-12-22T18:15:01.755Z,9.45
2022-12-22T18:20:01.804Z,9.49
2022-12-22T18:25:02.035Z,9.48
2022-12-22T18:30:01.958Z,9.55
2022-12-22T18:35:01.427Z,9.59
2022-12-22T18:40:01.919Z,9.63
2022-12-22T18:45:01.488Z,9.61
2022-12-22T18:50:02.185Z,9.64
2022-12-22T18:55:01.452Z,9.65
2022-12-22T19:00:04.508Z,9.67
2022-12-22T19:05:01.582Z,9.68
2022-12-22T19:10:01.437Z,9.69
2022-12-22T19:15:01.941Z,9.81
2022-12-22T19:20:02.140Z,9.81
2022-12-22T19:25:02.139Z,9.71
2022-12-22T19:30:04.352Z,9.8
2022-12-22T19:35:02.182Z,9.79
2022-12-22T19:40:01.733Z,9.78
2022-12-22T19:45:08.465Z,9.78
2022-12-22T19:50:01.656Z,9.76
2022-12-22T19:55:02.057Z,9.76
2022-12-22T20:00:01.511Z,9.77
2022-12-22T20:05:01.699Z,9.78
2022-12-22T20:10:02.150Z,9.79
2022-12-22T20:15:01.640Z,9.77
2022-12-22T20:20:02.207Z,9.72
2022-12-22T20:25:01.632Z,9.79
2022-12-22T20:30:01.451Z,9.71
2022-12-22T20:35:01.708Z,9.68
2022-12-22T20:40:01.623Z,9.7
2022-12-22T20:45:04.722Z,9.76
2022-12-22T20:50:02.155Z,9.69
2022-12-22T20:55:01.666Z,9.76
2022-12-22T21:00:01.950Z,9.67
2022-12-22T21:05:01.713Z,9.7
2022-12-22T21:10:01.799Z,9.71
2022-12-22T21:15:02.262Z,9.68
2022-12-22T21:20:01.806Z,9.69
2022-12-22T21:25:02.055Z,9.67
2022-12-22T21:30:02.215Z,9.62
2022-12-22T21:35:07.816Z,9.61
2022-12-22T21:40:02.060Z,9.64
2022-12-22T21:45:01.567Z,9.6
2022-12-22T21:50:02.230Z,9.61
2022-12-22T21:55:01.730Z,9.65
2022-12-22T22:00:01.697Z,9.68
2022-12-22T22:05:01.786Z,9.7
2022-12-22T22:10:01.956Z,9.7
2022-12-22T22:15:01.572Z,9.7
2022-12-22T22:20:02.265Z,9.63
2022-12-22T22:25:01.566Z,9.65
2022-12-22T22:30:02.024Z,9.67
2022-12-22T22:35:01.730Z,9.68
2022-12-22T22:40:01.389Z,9.67
2022-12-22T22:45:01.981Z,9.63
2022-12-22T22:50:02.231Z,9.56
2022-12-22T22:55:01.992Z,9.59
2022-12-22T23:00:02.343Z,9.57
2022-12-22T23:05:01.916Z,9.53
2022-12-22T23:10:02.234Z,9.51
2022-12-22T23:15:02.256Z,9.53
2022-12-22T23:20:01.694Z,9.52
2022-12-22T23:25:01.514Z,9.46
2022-12-22T23:30:01.435Z,9.41
2022-12-22T23:35:01.351Z,9.44
2022-12-22T23:40:33.236Z,9.39
2022-12-22T23:45:02.202Z,9.4
2022-12-22T23:50:01.417Z,9.39
2022-12-22T23:55:01.701Z,9.39
